Anderson Dam, Idaho
Current Conditions -  °F | °C
As of 5:58 PM on Friday 26 Dec 2014 (Local Time) from KMUO Reporting Station
Clear Clear  
Wind Chill: -6°   Ceiling: Unl
Heat Index:   Visibility: 10mi
Dew Point: -4°   Wind: 13mph
Humidity: 75%   Direction: 300°WNW
Pressure: 30.23"   Gusts: NA
Location:  43.2609°N, 115.781°W
Report Text: KMUO 270058Z AUTO 30011KT 10SM CLR 00/M04 A3023 RMK AO2 SLP262 T10041044
Loading
Personal Weather Stations






























Interactive Weather Map New forecast layout! Learn more

10-Day Weather Forecast

Advertisements
Track Severe Weather on mobile